Time;durP1;ratioP1;P1;durP2;ratioP2;P2;SDS_P1;SDS_P2;PMS_P1;PMS_P2;Temp;Humidity;BMP_temperature;BMP_pressure;BME280_temperature;BME280_humidity;BME280_pressure;Samples;Min_cycle;Max_cycle;Signal;HPM_P1;HPM_P2
2022/03/09 00:02:15;;;;;;;13.40;6.28;;;;;;;;;;4983620;28;20026;-76
2022/03/09 00:04:41;;;;;;;11.35;6.00;;;;;;;;;;5000307;28;20033;-78
2022/03/09 00:07:06;;;;;;;10.80;5.50;;;;;;;;;;5000878;28;20029;-78
2022/03/09 00:09:31;;;;;;;11.65;5.60;;;;;;;;;;4982814;28;20383;-77
2022/03/09 00:11:57;;;;;;;11.77;5.18;;;;;;;;;;4983389;28;20369;-78
2022/03/09 00:14:22;;;;;;;12.18;5.63;;;;;;;;;;5000800;28;20080;-77
2022/03/09 00:16:47;;;;;;;10.80;5.35;;;;;;;;;;4982375;28;20026;-77
2022/03/09 00:19:13;;;;;;;10.07;5.10;;;;;;;;;;4999985;28;20476;-78
2022/03/09 00:21:38;;;;;;;14.50;5.45;;;;;;;;;;4999145;28;20058;-77
2022/03/09 00:24:04;;;;;;;13.65;5.82;;;;;;;;;;4999343;28;20084;-76
2022/03/09 00:26:29;;;;;;;13.90;4.82;;;;;;;;;;4998513;28;20057;-77
2022/03/09 00:28:54;;;;;;;10.75;5.13;;;;;;;;;;4998039;28;20104;-77
2022/03/09 00:31:20;;;;;;;9.75;4.88;;;;;;;;;;4999839;28;20050;-77
2022/03/09 00:33:45;;;;;;;11.45;5.35;;;;;;;;;;4981245;28;20034;-77
2022/03/09 00:36:10;;;;;;;10.65;4.80;;;;;;;;;;4998963;28;20018;-77
2022/03/09 00:38:36;;;;;;;10.73;5.13;;;;;;;;;;4997966;28;20035;-78
2022/03/09 00:41:02;;;;;;;10.18;5.05;;;;;;;;;;4998800;28;20030;-78
2022/03/09 00:43:27;;;;;;;8.98;4.53;;;;;;;;;;4997950;28;20468;-77
2022/03/09 00:45:53;;;;;;;10.57;4.75;;;;;;;;;;4998050;28;20085;-76
2022/03/09 00:48:18;;;;;;;10.35;5.00;;;;;;;;;;4981018;28;20105;-77
2022/03/09 00:50:44;;;;;;;12.80;5.10;;;;;;;;;;4997772;28;20022;-77
2022/03/09 00:53:09;;;;;;;10.10;5.03;;;;;;;;;;4982187;28;20018;-77
2022/03/09 00:55:34;;;;;;;9.20;4.97;;;;;;;;;;4998355;28;20030;-77
2022/03/09 00:57:59;;;;;;;9.10;4.63;;;;;;;;;;4980125;28;20403;-78
2022/03/09 01:00:25;;;;;;;9.63;4.68;;;;;;;;;;4998227;28;20399;-77
2022/03/09 01:02:50;;;;;;;10.48;4.32;;;;;;;;;;4998252;28;20510;-78
2022/03/09 01:05:15;;;;;;;15.40;5.03;;;;;;;;;;4999347;28;20503;-77
2022/03/09 01:07:41;;;;;;;9.57;4.63;;;;;;;;;;4998974;28;20038;-77
2022/03/09 01:10:08;;;;;;;13.15;5.07;;;;;;;;;;4997360;28;20498;-77
2022/03/09 01:12:33;;;;;;;8.52;4.45;;;;;;;;;;4997476;28;20101;-76
2022/03/09 01:14:59;;;;;;;7.38;4.40;;;;;;;;;;4998665;28;20046;-78
2022/03/09 01:17:26;;;;;;;10.30;4.78;;;;;;;;;;4998797;28;20030;-78
2022/03/09 01:19:51;;;;;;;10.38;4.63;;;;;;;;;;4997798;28;20030;-77
2022/03/09 01:22:16;;;;;;;8.63;4.50;;;;;;;;;;4997797;28;20058;-77
2022/03/09 01:24:41;;;;;;;8.68;4.25;;;;;;;;;;4996721;28;20117;-77
2022/03/09 01:27:07;;;;;;;8.35;4.18;;;;;;;;;;4997019;28;20062;-77
2022/03/09 01:29:32;;;;;;;9.88;4.97;;;;;;;;;;4996842;28;20053;-78
2022/03/09 01:31:57;;;;;;;10.20;4.63;;;;;;;;;;4997889;28;20034;-78
2022/03/09 01:34:23;;;;;;;8.40;4.63;;;;;;;;;;4998040;28;20072;-77
2022/03/09 01:36:48;;;;;;;8.35;4.03;;;;;;;;;;4998671;28;20029;-77
2022/03/09 01:39:13;;;;;;;8.15;4.15;;;;;;;;;;4981231;28;20030;-77
2022/03/09 01:41:38;;;;;;;10.40;4.63;;;;;;;;;;4998128;28;20384;-77
2022/03/09 01:44:16;;;;;;;11.55;4.82;;;;;;;;;;4997729;28;20041;-77
2022/03/09 01:46:42;;;;;;;14.57;4.93;;;;;;;;;;4998306;28;20118;-78
2022/03/09 01:49:08;;;;;;;9.88;4.72;;;;;;;;;;4998369;28;20046;-77
2022/03/09 01:51:38;;;;;;;9.82;4.45;;;;;;;;;;4997756;28;20417;-77
2022/03/09 01:54:04;;;;;;;10.15;4.45;;;;;;;;;;4979788;28;20038;-77
2022/03/09 01:56:29;;;;;;;12.32;4.80;;;;;;;;;;4996780;28;20022;-77
2022/03/09 01:58:55;;;;;;;10.02;4.22;;;;;;;;;;4996136;28;20530;-77
2022/03/09 02:01:21;;;;;;;12.23;4.82;;;;;;;;;;4996114;28;20022;-77
2022/03/09 02:03:46;;;;;;;12.90;4.93;;;;;;;;;;4996337;28;20023;-77
2022/03/09 02:06:11;;;;;;;8.90;4.35;;;;;;;;;;4997340;28;20034;-77
2022/03/09 02:11:21;;;;;;;9.50;4.80;;;;;;;;;;4997056;28;20408;-77
2022/03/09 02:13:46;;;;;;;13.50;4.95;;;;;;;;;;4979240;28;20030;-77
2022/03/09 02:16:14;;;;;;;9.65;4.80;;;;;;;;;;4996894;28;20038;-77
2022/03/09 02:18:39;;;;;;;8.18;4.47;;;;;;;;;;4979433;28;20033;-77
2022/03/09 02:21:08;;;;;;;10.18;4.78;;;;;;;;;;4978683;28;20018;-77
2022/03/09 02:23:33;;;;;;;12.32;4.60;;;;;;;;;;4996115;28;20038;-77
2022/03/09 02:25:58;;;;;;;8.75;4.72;;;;;;;;;;4997198;28;20029;-78
2022/03/09 02:28:24;;;;;;;14.07;5.30;;;;;;;;;;4996395;28;20030;-78
2022/03/09 02:30:54;;;;;;;9.98;4.45;;;;;;;;;;4996664;28;20061;-77
2022/03/09 02:33:19;;;;;;;9.85;4.47;;;;;;;;;;4979253;28;20026;-77
2022/03/09 02:35:45;;;;;;;16.50;5.40;;;;;;;;;;4996873;28;20497;-77
2022/03/09 02:38:10;;;;;;;10.35;4.90;;;;;;;;;;4996249;28;20034;-77
2022/03/09 02:40:35;;;;;;;10.18;4.82;;;;;;;;;;4995496;28;20034;-77
2022/03/09 02:43:00;;;;;;;11.20;4.53;;;;;;;;;;4995734;28;20033;-77
2022/03/09 02:45:26;;;;;;;11.07;5.00;;;;;;;;;;4997432;28;20093;-78
2022/03/09 02:47:51;;;;;;;7.45;3.75;;;;;;;;;;4998591;28;20078;-78
2022/03/09 02:50:16;;;;;;;8.43;4.72;;;;;;;;;;4997676;28;20443;-77
2022/03/09 02:52:42;;;;;;;9.52;4.40;;;;;;;;;;4996618;28;20126;-78
2022/03/09 02:55:09;;;;;;;8.68;4.72;;;;;;;;;;4998397;28;20049;-78
2022/03/09 02:57:35;;;;;;;8.35;4.18;;;;;;;;;;4979953;28;20026;-78
2022/03/09 03:00:00;;;;;;;12.48;4.82;;;;;;;;;;4978727;28;20472;-75
2022/03/09 03:02:26;;;;;;;12.13;5.05;;;;;;;;;;4995573;28;20026;-77
2022/03/09 03:04:51;;;;;;;10.73;4.72;;;;;;;;;;4996522;28;20586;-77
2022/03/09 03:07:16;;;;;;;9.27;4.45;;;;;;;;;;4996733;28;20034;-77
2022/03/09 03:09:42;;;;;;;11.00;5.10;;;;;;;;;;4997673;28;20038;-77
2022/03/09 03:12:07;;;;;;;15.60;5.43;;;;;;;;;;4997253;28;20065;-78
2022/03/09 03:14:32;;;;;;;11.93;5.22;;;;;;;;;;4995566;28;20553;-77
2022/03/09 03:16:58;;;;;;;8.77;4.80;;;;;;;;;;4979102;28;20029;-78
2022/03/09 03:19:23;;;;;;;11.20;4.70;;;;;;;;;;4997553;28;20082;-78
2022/03/09 03:21:48;;;;;;;10.18;5.10;;;;;;;;;;4980626;28;20056;-78
2022/03/09 03:24:13;;;;;;;10.05;4.53;;;;;;;;;;4996580;28;20030;-77
2022/03/09 03:26:38;;;;;;;11.25;4.68;;;;;;;;;;4994775;28;20027;-77
2022/03/09 03:29:04;;;;;;;9.10;4.63;;;;;;;;;;4994918;28;20125;-77
2022/03/09 03:31:29;;;;;;;9.48;4.75;;;;;;;;;;4997117;28;20100;-77
2022/03/09 03:33:55;;;;;;;13.23;5.20;;;;;;;;;;4996714;28;20026;-78
2022/03/09 03:36:20;;;;;;;10.60;5.30;;;;;;;;;;4979749;28;20026;-78
2022/03/09 03:38:45;;;;;;;11.45;4.93;;;;;;;;;;4996338;28;20472;-78
2022/03/09 03:41:11;;;;;;;11.93;5.28;;;;;;;;;;4996606;28;20022;-77
2022/03/09 03:43:36;;;;;;;10.80;5.00;;;;;;;;;;4996106;28;20109;-78
2022/03/09 03:46:01;;;;;;;11.63;5.43;;;;;;;;;;4997383;28;20030;-77
2022/03/09 03:48:26;;;;;;;12.25;5.03;;;;;;;;;;4997634;28;20029;-78
2022/03/09 03:50:52;;;;;;;11.50;5.60;;;;;;;;;;4998066;28;20034;-78
2022/03/09 03:53:17;;;;;;;10.68;5.10;;;;;;;;;;4997630;28;20113;-78
2022/03/09 03:55:44;;;;;;;10.75;5.20;;;;;;;;;;4996790;28;20033;-77
2022/03/09 03:58:10;;;;;;;11.75;5.28;;;;;;;;;;4996023;28;20530;-78
2022/03/09 04:00:35;;;;;;;12.80;5.10;;;;;;;;;;4998379;28;20034;-78
2022/03/09 04:03:00;;;;;;;12.10;5.10;;;;;;;;;;4982885;28;20042;-78
2022/03/09 04:05:26;;;;;;;12.23;5.55;;;;;;;;;;4999915;28;20038;-78
2022/03/09 04:07:51;;;;;;;11.70;5.25;;;;;;;;;;4981970;28;20027;-78
2022/03/09 04:10:16;;;;;;;11.75;4.72;;;;;;;;;;4996225;28;20554;-78
2022/03/09 04:12:41;;;;;;;11.45;4.90;;;;;;;;;;4998336;28;20038;-78
2022/03/09 04:15:07;;;;;;;10.32;4.68;;;;;;;;;;4999412;28;20099;-78
2022/03/09 04:17:44;;;;;;;12.30;4.93;;;;;;;;;;4999418;28;20046;-78
2022/03/09 04:20:10;;;;;;;14.98;5.10;;;;;;;;;;4999350;28;20105;-79
2022/03/09 04:22:36;;;;;;;12.27;5.03;;;;;;;;;;4997053;28;20041;-78
2022/03/09 04:25:02;;;;;;;12.02;5.47;;;;;;;;;;4981434;28;20026;-78
2022/03/09 04:27:28;;;;;;;22.55;8.13;;;;;;;;;;5001572;28;20027;-79
2022/03/09 04:29:53;;;;;;;24.73;9.65;;;;;;;;;;5000668;28;20559;-77
2022/03/09 04:32:18;;;;;;;23.15;9.90;;;;;;;;;;5000493;28;20030;-76
2022/03/09 04:34:43;;;;;;;17.83;7.63;;;;;;;;;;5000083;28;20049;-76
2022/03/09 04:37:09;;;;;;;14.50;6.90;;;;;;;;;;5001293;28;20030;-77
2022/03/09 04:39:34;;;;;;;10.02;4.72;;;;;;;;;;5000859;28;20037;-76
2022/03/09 04:41:59;;;;;;;12.70;4.95;;;;;;;;;;4999854;28;20058;-77
2022/03/09 04:44:24;;;;;;;10.20;4.70;;;;;;;;;;4984088;28;20025;-77
2022/03/09 04:46:49;;;;;;;14.23;5.22;;;;;;;;;;5001140;28;20038;-77
2022/03/09 04:49:15;;;;;;;14.25;5.28;;;;;;;;;;5001136;28;20018;-77
2022/03/09 04:51:40;;;;;;;11.73;5.18;;;;;;;;;;5001225;28;20026;-77
2022/03/09 04:54:05;;;;;;;10.25;5.05;;;;;;;;;;5000723;28;20062;-77
2022/03/09 04:56:30;;;;;;;11.38;5.20;;;;;;;;;;5002031;28;20026;-78
2022/03/09 04:58:56;;;;;;;12.52;5.10;;;;;;;;;;4999886;28;20484;-78
2022/03/09 05:01:21;;;;;;;10.82;4.88;;;;;;;;;;4981426;28;20507;-77
2022/03/09 05:03:46;;;;;;;17.52;5.85;;;;;;;;;;4999293;28;20484;-77
2022/03/09 05:06:13;;;;;;;12.52;5.35;;;;;;;;;;4997943;28;20033;-77
2022/03/09 05:08:38;;;;;;;8.15;4.45;;;;;;;;;;4997598;28;20034;-77
2022/03/09 05:11:03;;;;;;;13.27;5.55;;;;;;;;;;4998116;28;20026;-77
2022/03/09 05:13:29;;;;;;;13.25;5.70;;;;;;;;;;4998737;28;20022;-77
2022/03/09 05:15:54;;;;;;;10.63;5.03;;;;;;;;;;4998412;28;20042;-77
2022/03/09 05:18:19;;;;;;;11.30;5.32;;;;;;;;;;4980463;28;20023;-78
2022/03/09 05:20:46;;;;;;;20.65;6.10;;;;;;;;;;4997841;28;20079;-77
2022/03/09 05:23:11;;;;;;;15.77;6.40;;;;;;;;;;4997921;28;20499;-77
2022/03/09 05:25:37;;;;;;;24.27;9.27;;;;;;;;;;4997728;28;20030;-77
2022/03/09 05:28:02;;;;;;;16.27;6.15;;;;;;;;;;4997989;28;20030;-78
2022/03/09 05:30:28;;;;;;;14.20;5.15;;;;;;;;;;4981858;28;20030;-79
2022/03/09 05:32:53;;;;;;;11.65;5.80;;;;;;;;;;4999877;28;20042;-80
2022/03/09 05:35:18;;;;;;;17.80;6.88;;;;;;;;;;5001004;28;20066;-77
2022/03/09 05:37:44;;;;;;;15.27;7.30;;;;;;;;;;4999509;28;20476;-77
2022/03/09 05:40:10;;;;;;;16.65;6.95;;;;;;;;;;4997725;28;20476;-77
2022/03/09 05:42:37;;;;;;;18.67;7.68;;;;;;;;;;4997976;28;20038;-77
2022/03/09 05:45:03;;;;;;;23.17;11.55;;;;;;;;;;4996796;28;20026;-77
2022/03/09 05:47:28;;;;;;;23.40;10.90;;;;;;;;;;4998951;28;20368;-78
2022/03/09 05:49:54;;;;;;;19.90;9.70;;;;;;;;;;4997795;28;20029;-77
2022/03/09 05:52:19;;;;;;;14.77;7.35;;;;;;;;;;4997880;28;20419;-77
2022/03/09 05:54:45;;;;;;;13.77;7.15;;;;;;;;;;4997861;28;20440;-76
2022/03/09 05:57:17;;;;;;;12.95;6.63;;;;;;;;;;4997476;28;20018;-77
2022/03/09 05:59:43;;;;;;;13.45;6.80;;;;;;;;;;4995374;28;20033;-77
2022/03/09 06:02:08;;;;;;;14.65;6.35;;;;;;;;;;4995847;28;20436;-77
2022/03/09 06:04:33;;;;;;;13.00;5.93;;;;;;;;;;4996842;28;20391;-77
2022/03/09 06:07:01;;;;;;;12.55;5.10;;;;;;;;;;4996238;28;20058;-77
2022/03/09 06:09:27;;;;;;;15.68;5.53;;;;;;;;;;4996344;28;20026;-77
2022/03/09 06:11:52;;;;;;;15.68;5.78;;;;;;;;;;4996129;28;20049;-77
2022/03/09 06:14:17;;;;;;;15.10;5.70;;;;;;;;;;4996365;28;20026;-77
2022/03/09 06:16:42;;;;;;;9.95;5.40;;;;;;;;;;4997446;28;20019;-77
2022/03/09 06:19:08;;;;;;;15.95;6.38;;;;;;;;;;4997474;28;20030;-78
2022/03/09 06:21:33;;;;;;;17.73;7.70;;;;;;;;;;4997789;28;20084;-78
2022/03/09 06:23:58;;;;;;;13.82;7.38;;;;;;;;;;4996625;28;20030;-78
2022/03/09 06:26:23;;;;;;;12.52;6.93;;;;;;;;;;4996424;28;20032;-78
2022/03/09 06:28:49;;;;;;;10.32;5.93;;;;;;;;;;4979276;28;20124;-78
2022/03/09 06:31:14;;;;;;;12.95;6.47;;;;;;;;;;4996754;28;20058;-77
2022/03/09 06:33:39;;;;;;;11.10;6.72;;;;;;;;;;4997952;28;20054;-78
2022/03/09 06:36:06;;;;;;;10.20;6.00;;;;;;;;;;4998400;28;20030;-77
2022/03/09 06:38:32;;;;;;;11.23;5.80;;;;;;;;;;4997748;28;20029;-77
2022/03/09 06:40:57;;;;;;;14.50;5.90;;;;;;;;;;4999309;28;20026;-78
2022/03/09 06:43:23;;;;;;;13.55;5.82;;;;;;;;;;4999374;28;20037;-78
2022/03/09 06:45:48;;;;;;;13.25;5.40;;;;;;;;;;4999881;28;20157;-78
2022/03/09 06:48:13;;;;;;;12.40;5.85;;;;;;;;;;4999111;28;20029;-78
2022/03/09 06:50:38;;;;;;;12.63;6.03;;;;;;;;;;4982562;28;20090;-78
2022/03/09 06:53:05;;;;;;;15.52;5.88;;;;;;;;;;4999902;28;20026;-77
2022/03/09 06:55:30;;;;;;;13.07;5.80;;;;;;;;;;4999796;28;20081;-77
2022/03/09 06:57:55;;;;;;;14.70;5.47;;;;;;;;;;4999724;28;20030;-77
2022/03/09 07:00:21;;;;;;;10.25;5.38;;;;;;;;;;4999916;28;20080;-77
2022/03/09 07:02:46;;;;;;;10.82;5.35;;;;;;;;;;4999917;28;20030;-77
2022/03/09 07:05:12;;;;;;;12.82;5.85;;;;;;;;;;4998887;28;20030;-77
2022/03/09 07:07:39;;;;;;;15.98;5.70;;;;;;;;;;5000156;28;20072;-78
2022/03/09 07:10:06;;;;;;;10.98;5.43;;;;;;;;;;5000532;28;20026;-78
2022/03/09 07:12:31;;;;;;;11.60;5.20;;;;;;;;;;5001521;28;20487;-78
2022/03/09 07:14:56;;;;;;;14.60;5.80;;;;;;;;;;5001221;28;20030;-78
2022/03/09 07:17:22;;;;;;;14.23;5.72;;;;;;;;;;5001141;28;20034;-78
2022/03/09 07:19:47;;;;;;;13.73;5.55;;;;;;;;;;5000673;28;20023;-77
2022/03/09 07:22:12;;;;;;;10.60;5.53;;;;;;;;;;4999066;28;20060;-77
2022/03/09 07:24:37;;;;;;;13.43;5.63;;;;;;;;;;4996600;28;20030;-77
2022/03/09 07:27:03;;;;;;;16.30;5.93;;;;;;;;;;4996651;28;20039;-77
2022/03/09 07:29:28;;;;;;;12.57;5.25;;;;;;;;;;4995950;28;20041;-76
2022/03/09 07:31:54;;;;;;;11.82;5.45;;;;;;;;;;4996587;28;20424;-77
2022/03/09 07:34:22;;;;;;;14.70;5.13;;;;;;;;;;4995428;28;20026;-77
2022/03/09 07:36:49;;;;;;;11.90;5.50;;;;;;;;;;4995582;28;20029;-76
2022/03/09 07:39:15;;;;;;;11.20;5.20;;;;;;;;;;4994397;28;20077;-77
2022/03/09 07:41:41;;;;;;;9.90;5.03;;;;;;;;;;4995403;28;20481;-77
2022/03/09 07:44:06;;;;;;;11.25;5.45;;;;;;;;;;4995481;28;20098;-77
2022/03/09 07:46:31;;;;;;;10.88;5.05;;;;;;;;;;4995959;28;20510;-76
2022/03/09 07:48:56;;;;;;;13.23;5.35;;;;;;;;;;4978229;28;20455;-78
2022/03/09 07:51:22;;;;;;;10.80;5.22;;;;;;;;;;4995515;28;20090;-77
2022/03/09 07:53:47;;;;;;;11.15;5.10;;;;;;;;;;4994744;28;20058;-77
2022/03/09 07:56:13;;;;;;;12.73;4.57;;;;;;;;;;4994247;28;20365;-77
2022/03/09 07:58:38;;;;;;;12.63;5.45;;;;;;;;;;4995063;28;20415;-77
2022/03/09 08:01:04;;;;;;;12.45;5.38;;;;;;;;;;4988326;28;20038;-78
2022/03/09 08:03:30;;;;;;;11.27;5.15;;;;;;;;;;4988689;28;20029;-76
2022/03/09 08:05:55;;;;;;;12.77;5.55;;;;;;;;;;4997887;28;20057;-76
2022/03/09 08:08:20;;;;;;;10.80;5.60;;;;;;;;;;4997786;28;20098;-75
2022/03/09 08:10:45;;;;;;;13.18;5.80;;;;;;;;;;4979581;28;20057;-76
2022/03/09 08:13:11;;;;;;;12.55;5.40;;;;;;;;;;4998498;28;20026;-75
2022/03/09 08:15:37;;;;;;;15.98;6.10;;;;;;;;;;4980484;28;20026;-75
2022/03/09 08:18:03;;;;;;;15.13;6.10;;;;;;;;;;4997593;28;20555;-74
2022/03/09 08:20:28;;;;;;;12.02;5.85;;;;;;;;;;4997625;28;20472;-75
2022/03/09 08:22:53;;;;;;;15.00;5.72;;;;;;;;;;4997343;28;20037;-75
2022/03/09 08:25:19;;;;;;;14.45;6.07;;;;;;;;;;4998019;28;20472;-75
2022/03/09 08:27:44;;;;;;;12.45;5.68;;;;;;;;;;4997133;28;20503;-76
2022/03/09 08:30:10;;;;;;;15.02;6.15;;;;;;;;;;4979556;28;20051;-75
2022/03/09 08:32:35;;;;;;;11.55;5.45;;;;;;;;;;4996859;28;20032;-76
2022/03/09 08:35:00;;;;;;;13.73;5.68;;;;;;;;;;5000877;28;20026;-77
2022/03/09 08:37:25;;;;;;;12.77;5.55;;;;;;;;;;4983088;28;20069;-76
2022/03/09 08:39:51;;;;;;;13.65;5.85;;;;;;;;;;5000084;28;20026;-77
2022/03/09 08:42:16;;;;;;;14.82;6.07;;;;;;;;;;5001844;28;20084;-77
2022/03/09 08:44:41;;;;;;;9.85;4.57;;;;;;;;;;5001576;28;20034;-77
2022/03/09 08:47:07;;;;;;;10.23;4.97;;;;;;;;;;5001208;28;20041;-77
2022/03/09 08:49:33;;;;;;;10.43;4.63;;;;;;;;;;5001377;28;20037;-76
2022/03/09 08:51:58;;;;;;;14.55;6.05;;;;;;;;;;5000815;28;20030;-77
2022/03/09 08:54:24;;;;;;;11.55;5.57;;;;;;;;;;5001326;28;20034;-77
2022/03/09 08:56:49;;;;;;;12.15;5.03;;;;;;;;;;5002285;28;20018;-77
2022/03/09 08:59:14;;;;;;;11.60;5.90;;;;;;;;;;5002364;28;20110;-76
2022/03/09 09:01:39;;;;;;;11.27;5.75;;;;;;;;;;4999497;28;20060;-76
2022/03/09 09:04:05;;;;;;;10.35;5.13;;;;;;;;;;4998419;28;20026;-77
2022/03/09 09:06:30;;;;;;;8.27;4.80;;;;;;;;;;5000087;28;20117;-77
2022/03/09 09:08:55;;;;;;;12.40;5.78;;;;;;;;;;4998663;28;20053;-77
2022/03/09 09:11:20;;;;;;;13.27;5.13;;;;;;;;;;4997666;28;20022;-77
2022/03/09 09:13:45;;;;;;;10.10;5.05;;;;;;;;;;4980689;28;20026;-76
2022/03/09 09:16:12;;;;;;;10.93;5.28;;;;;;;;;;4980262;28;20025;-76
2022/03/09 09:18:38;;;;;;;9.90;4.63;;;;;;;;;;4997556;28;20026;-76
2022/03/09 09:21:04;;;;;;;11.48;4.93;;;;;;;;;;4997164;28;20102;-77
2022/03/09 09:23:29;;;;;;;8.65;4.53;;;;;;;;;;4997336;28;20022;-77
2022/03/09 09:25:54;;;;;;;14.38;5.18;;;;;;;;;;4996924;28;20045;-77
2022/03/09 09:28:19;;;;;;;10.07;4.43;;;;;;;;;;4996514;28;20440;-75
2022/03/09 09:30:45;;;;;;;10.35;4.63;;;;;;;;;;4996634;28;20035;-77
2022/03/09 09:33:10;;;;;;;12.23;4.50;;;;;;;;;;4996391;28;20030;-76
2022/03/09 09:35:35;;;;;;;9.43;4.32;;;;;;;;;;4996716;28;20030;-77
2022/03/09 09:38:06;;;;;;;8.57;4.07;;;;;;;;;;4995921;28;20053;-77
2022/03/09 09:40:34;;;;;;;11.43;4.15;;;;;;;;;;4996393;28;20550;-76
2022/03/09 09:43:01;;;;;;;8.55;4.43;;;;;;;;;;4995615;28;20542;-76
2022/03/09 09:45:26;;;;;;;8.23;4.38;;;;;;;;;;4996167;28;20053;-77
2022/03/09 09:47:51;;;;;;;8.73;4.38;;;;;;;;;;4996199;28;20062;-77
2022/03/09 09:50:17;;;;;;;7.85;4.25;;;;;;;;;;4996069;28;20030;-76
2022/03/09 09:52:42;;;;;;;10.07;4.28;;;;;;;;;;4995621;28;20026;-76
2022/03/09 09:55:08;;;;;;;9.35;4.10;;;;;;;;;;4995811;28;20034;-77
2022/03/09 09:57:34;;;;;;;10.45;4.55;;;;;;;;;;4995839;28;20498;-76
2022/03/09 10:00:00;;;;;;;9.52;4.47;;;;;;;;;;4995918;28;20031;-76
2022/03/09 10:02:25;;;;;;;9.23;4.22;;;;;;;;;;4978812;28;20109;-77
2022/03/09 10:04:51;;;;;;;10.63;4.35;;;;;;;;;;4978901;28;20076;-76
2022/03/09 10:07:17;;;;;;;9.15;4.18;;;;;;;;;;4996394;28;20029;-77
2022/03/09 10:09:43;;;;;;;8.38;4.13;;;;;;;;;;4996414;28;20113;-77
2022/03/09 10:12:10;;;;;;;7.07;4.28;;;;;;;;;;4978823;28;20038;-77
2022/03/09 10:14:54;;;;;;;7.10;4.05;;;;;;;;;;4995027;28;20121;-76
2022/03/09 10:17:28;;;;;;;8.23;3.72;;;;;;;;;;4996071;28;20025;-77
2022/03/09 10:20:07;;;;;;;8.80;3.75;;;;;;;;;;4978188;28;20049;-76
2022/03/09 10:22:41;;;;;;;8.43;4.07;;;;;;;;;;4995879;28;20034;-78
2022/03/09 10:25:10;;;;;;;9.05;4.00;;;;;;;;;;4979129;28;20022;-77
2022/03/09 10:27:40;;;;;;;8.48;3.38;;;;;;;;;;4978172;28;20421;-77
2022/03/09 10:30:14;;;;;;;7.20;3.60;;;;;;;;;;4996149;28;20057;-77
2022/03/09 10:32:56;;;;;;;8.93;3.45;;;;;;;;;;4978966;28;20033;-77
2022/03/09 10:35:33;;;;;;;7.28;3.58;;;;;;;;;;4979202;28;20084;-77
2022/03/09 10:38:06;;;;;;;6.47;3.00;;;;;;;;;;4997401;28;20022;-78
2022/03/09 10:40:40;;;;;;;6.22;3.17;;;;;;;;;;4996608;28;20026;-78
2022/03/09 10:43:13;;;;;;;5.78;3.05;;;;;;;;;;4996595;28;20562;-78
2022/03/09 10:46:02;;;;;;;6.65;3.38;;;;;;;;;;4996567;28;20037;-77
2022/03/09 10:48:54;;;;;;;9.15;3.70;;;;;;;;;;4996638;28;20038;-77
2022/03/09 10:51:28;;;;;;;7.10;3.45;;;;;;;;;;4995918;28;20022;-77
2022/03/09 10:53:54;;;;;;;6.97;3.60;;;;;;;;;;4978878;28;20026;-77
2022/03/09 10:56:20;;;;;;;7.95;3.13;;;;;;;;;;4994972;28;20077;-77
2022/03/09 10:58:46;;;;;;;6.65;2.55;;;;;;;;;;4994574;28;20030;-77
2022/03/09 11:01:16;;;;;;;6.70;3.10;;;;;;;;;;4978831;28;20109;-78
2022/03/09 11:03:43;;;;;;;5.90;2.92;;;;;;;;;;4996432;28;20030;-76
2022/03/09 11:06:09;;;;;;;6.00;2.70;;;;;;;;;;4996504;28;20105;-77
2022/03/09 11:08:36;;;;;;;6.85;2.90;;;;;;;;;;4997398;28;20072;-77
2022/03/09 11:11:03;;;;;;;8.18;3.78;;;;;;;;;;4997315;28;20027;-78
2022/03/09 11:13:30;;;;;;;6.72;3.10;;;;;;;;;;4996721;28;20037;-77
2022/03/09 11:15:56;;;;;;;7.85;3.33;;;;;;;;;;4996518;28;20041;-77
2022/03/09 11:18:24;;;;;;;13.10;3.20;;;;;;;;;;4996079;28;20030;-77
2022/03/09 11:20:52;;;;;;;7.20;2.88;;;;;;;;;;4979321;28;20081;-76
2022/03/09 11:23:18;;;;;;;8.95;3.00;;;;;;;;;;4995685;28;20109;-76
2022/03/09 11:26:14;;;;;;;9.90;3.22;;;;;;;;;;4995913;28;20026;-77
2022/03/09 11:28:43;;;;;;;6.70;2.85;;;;;;;;;;4978250;28;20065;-76
2022/03/09 11:31:17;;;;;;;6.60;2.78;;;;;;;;;;4995985;28;20046;-77
2022/03/09 11:33:42;;;;;;;7.25;3.25;;;;;;;;;;4994750;28;20499;-76
2022/03/09 11:36:23;;;;;;;6.77;2.83;;;;;;;;;;5001686;28;20117;-77
2022/03/09 11:38:53;;;;;;;6.50;3.40;;;;;;;;;;5001779;28;20271;-77
2022/03/09 11:41:21;;;;;;;9.05;3.50;;;;;;;;;;5002000;28;20022;-77
2022/03/09 11:43:46;;;;;;;9.40;3.63;;;;;;;;;;4983988;28;20065;-77
2022/03/09 11:46:12;;;;;;;6.60;3.30;;;;;;;;;;5001222;28;20057;-76
2022/03/09 11:48:58;;;;;;;7.28;2.92;;;;;;;;;;4983351;28;20026;-77
2022/03/09 11:51:25;;;;;;;6.03;3.35;;;;;;;;;;5001830;28;20030;-77
2022/03/09 11:53:58;;;;;;;9.90;3.78;;;;;;;;;;5003408;28;20026;-77
2022/03/09 11:56:30;;;;;;;11.32;3.78;;;;;;;;;;5003050;28;20026;-78
2022/03/09 11:59:19;;;;;;;6.05;3.40;;;;;;;;;;4985702;28;20092;-78
2022/03/09 12:02:00;;;;;;;6.47;3.45;;;;;;;;;;5003105;28;20034;-79
2022/03/09 12:04:48;;;;;;;9.63;3.15;;;;;;;;;;5003754;28;20028;-77
2022/03/09 12:07:34;;;;;;;6.47;3.58;;;;;;;;;;5005538;28;20026;-77
2022/03/09 12:10:13;;;;;;;6.30;3.03;;;;;;;;;;5005385;28;20121;-77
2022/03/09 12:13:10;;;;;;;5.38;2.95;;;;;;;;;;4986801;28;20480;-77
2022/03/09 12:16:07;;;;;;;9.70;3.35;;;;;;;;;;5003806;28;20369;-78
2022/03/09 12:18:47;;;;;;;6.00;3.30;;;;;;;;;;5002397;28;20546;-77
2022/03/09 12:21:16;;;;;;;4.50;2.75;;;;;;;;;;5003720;28;20034;-77
2022/03/09 12:24:06;;;;;;;5.68;2.72;;;;;;;;;;5004216;28;20090;-77
2022/03/09 12:26:38;;;;;;;4.55;2.63;;;;;;;;;;5003457;28;20045;-77
2022/03/09 12:29:24;;;;;;;5.82;2.55;;;;;;;;;;5002571;28;20034;-77
2022/03/09 12:32:02;;;;;;;6.10;2.63;;;;;;;;;;4985150;28;20031;-77
2022/03/09 12:34:35;;;;;;;4.72;2.70;;;;;;;;;;5003166;28;20100;-77
2022/03/09 12:37:01;;;;;;;9.68;2.60;;;;;;;;;;5002646;28;20029;-78
2022/03/09 12:39:27;;;;;;;5.15;2.65;;;;;;;;;;5003355;28;20033;-77
2022/03/09 12:41:54;;;;;;;6.63;2.80;;;;;;;;;;5003226;28;20057;-77
2022/03/09 12:44:23;;;;;;;5.93;2.60;;;;;;;;;;5002838;28;20034;-77
2022/03/09 12:46:52;;;;;;;4.65;2.78;;;;;;;;;;4998974;28;20114;-77
2022/03/09 12:49:20;;;;;;;5.25;2.45;;;;;;;;;;4999114;28;20027;-78
2022/03/09 12:51:59;;;;;;;4.97;2.80;;;;;;;;;;5000368;28;20110;-77
2022/03/09 12:54:33;;;;;;;6.47;2.38;;;;;;;;;;5000001;28;20022;-76
2022/03/09 12:57:21;;;;;;;5.10;2.78;;;;;;;;;;4999058;28;20022;-77
2022/03/09 13:00:08;;;;;;;5.35;2.83;;;;;;;;;;4999065;28;20504;-77
2022/03/09 13:02:38;;;;;;;5.50;2.97;;;;;;;;;;4998385;28;20484;-77
2022/03/09 13:05:04;;;;;;;4.32;2.70;;;;;;;;;;4981883;28;20469;-77
2022/03/09 13:07:29;;;;;;;4.78;2.88;;;;;;;;;;4998332;28;20033;-77
2022/03/09 13:10:10;;;;;;;7.03;3.28;;;;;;;;;;4998356;28;20034;-77
2022/03/09 13:12:49;;;;;;;6.10;3.30;;;;;;;;;;4980242;28;20030;-77
2022/03/09 13:15:14;;;;;;;9.90;3.17;;;;;;;;;;4997546;28;20161;-76
2022/03/09 13:17:48;;;;;;;5.43;2.05;;;;;;;;;;4997241;28;20038;-77
2022/03/09 13:20:14;;;;;;;;;;;;;;;;;;4997506;28;20392;-74
2022/03/09 13:22:44;;;;;;;6.05;2.65;;;;;;;;;;4997052;28;19916;-77
2022/03/09 13:25:10;;;;;;;7.55;3.25;;;;;;;;;;4979244;28;20032;-77
2022/03/09 13:27:35;;;;;;;8.73;2.80;;;;;;;;;;4979526;28;20113;-77
2022/03/09 13:30:15;;;;;;;5.75;2.72;;;;;;;;;;4979720;28;20369;-77
2022/03/09 13:32:40;;;;;;;2.25;1.73;;;;;;;;;;4998436;28;20030;-76
2022/03/09 13:35:06;;;;;;;7.07;2.22;;;;;;;;;;4997632;28;20094;-77
2022/03/09 13:37:39;;;;;;;5.72;2.53;;;;;;;;;;4997744;28;20061;-78
2022/03/09 13:40:07;;;;;;;10.35;2.92;;;;;;;;;;4997652;28;20057;-77
2022/03/09 13:42:36;;;;;;;5.47;2.80;;;;;;;;;;4997400;28;20034;-76
2022/03/09 13:45:15;;;;;;;4.85;2.45;;;;;;;;;;4996949;28;20049;-77
2022/03/09 13:47:44;;;;;;;5.80;2.80;;;;;;;;;;4979185;28;20373;-77
2022/03/09 13:50:20;;;;;;;5.53;2.65;;;;;;;;;;4979509;28;20030;-77
2022/03/09 13:52:45;;;;;;;5.25;2.97;;;;;;;;;;4997775;28;20057;-78
2022/03/09 13:55:22;;;;;;;7.53;2.85;;;;;;;;;;4998423;28;20030;-77
2022/03/09 13:57:58;;;;;;;3.17;2.15;;;;;;;;;;4995839;28;20059;-77
2022/03/09 14:00:30;;;;;;;5.00;2.50;;;;;;;;;;4995403;28;20468;-77
2022/03/09 14:02:57;;;;;;;5.43;2.90;;;;;;;;;;4995768;28;20022;-77
2022/03/09 14:05:32;;;;;;;4.15;2.53;;;;;;;;;;4996649;28;20177;-77
2022/03/09 14:07:58;;;;;;;4.75;2.53;;;;;;;;;;4996261;28;20037;-76
2022/03/09 14:10:28;;;;;;;4.78;2.55;;;;;;;;;;4996255;28;20456;-77
2022/03/09 14:12:55;;;;;;;5.22;2.60;;;;;;;;;;4996568;28;20026;-77
2022/03/09 14:15:23;;;;;;;5.55;2.40;;;;;;;;;;4996456;28;20030;-77
2022/03/09 14:17:48;;;;;;;6.80;2.95;;;;;;;;;;4997640;28;20029;-77
2022/03/09 14:20:14;;;;;;;5.05;2.70;;;;;;;;;;4996987;28;20391;-76
2022/03/09 14:22:46;;;;;;;6.28;2.67;;;;;;;;;;4979553;28;20042;-77
2022/03/09 14:25:12;;;;;;;5.10;2.47;;;;;;;;;;4996520;28;20064;-77
2022/03/09 14:27:38;;;;;;;4.65;2.70;;;;;;;;;;4996998;28;20030;-77
2022/03/09 14:30:05;;;;;;;5.70;2.97;;;;;;;;;;4978579;28;20472;-77
2022/03/09 14:32:31;;;;;;;5.32;2.92;;;;;;;;;;4996243;28;20037;-77
2022/03/09 14:34:57;;;;;;;4.55;2.97;;;;;;;;;;4994529;28;20026;-77
2022/03/09 14:37:22;;;;;;;4.60;2.35;;;;;;;;;;4978624;28;20034;-76
2022/03/09 14:39:47;;;;;;;5.43;2.53;;;;;;;;;;4995797;28;20026;-78
2022/03/09 14:42:13;;;;;;;5.80;3.20;;;;;;;;;;4995703;28;20136;-77